createdAt,value
2018-08-28T00:01:34.486Z,9.53
2018-08-28T00:04:05.238Z,9.80
2018-08-28T00:06:34.154Z,9.70
2018-08-28T00:09:02.602Z,10.40
2018-08-28T00:11:33.243Z,9.70
2018-08-28T00:14:02.044Z,9.87
2018-08-28T00:16:30.897Z,11.13
2018-08-28T00:18:59.734Z,10.13
2018-08-28T00:21:28.527Z,10.07
2018-08-28T00:23:57.288Z,9.57
2018-08-28T00:26:28.274Z,9.00
2018-08-28T00:28:57.064Z,10.33
2018-08-28T00:31:25.862Z,10.13
2018-08-28T00:33:54.684Z,9.00
2018-08-28T00:36:24.577Z,9.57
2018-08-28T00:38:53.370Z,9.43
2018-08-28T00:41:23.666Z,9.43
2018-08-28T00:43:52.459Z,8.93
2018-08-28T00:46:21.214Z,9.43
2018-08-28T00:48:50.302Z,8.70
2018-08-28T00:51:19.089Z,9.17
2018-08-28T00:53:47.866Z,9.83
2018-08-28T00:56:17.427Z,8.47
2018-08-28T00:58:46.462Z,8.27
2018-08-28T01:01:15.247Z,8.00
2018-08-28T01:03:44.349Z,7.87
2018-08-28T01:06:13.143Z,8.07
2018-08-28T01:08:41.916Z,8.43
2018-08-28T01:11:10.719Z,7.83
2018-08-28T01:13:39.511Z,8.80
2018-08-28T01:16:08.260Z,8.17
2018-08-28T01:18:38.000Z,8.40
2018-08-28T01:21:06.840Z,8.70
2018-08-28T01:23:35.610Z,8.10
2018-08-28T01:26:05.245Z,7.90
2018-08-28T01:28:34.009Z,7.87
2018-08-28T01:31:02.816Z,8.97
2018-08-28T01:33:32.229Z,8.43
2018-08-28T01:36:01.008Z,8.37
2018-08-28T01:38:29.822Z,8.30
2018-08-28T01:40:59.314Z,8.53
2018-08-28T01:43:31.167Z,8.30
2018-08-28T01:46:00.534Z,8.43
2018-08-28T01:48:29.704Z,8.50
2018-08-28T01:50:58.679Z,8.30
2018-08-28T01:53:27.770Z,8.27
2018-08-28T01:55:56.522Z,8.90
2018-08-28T01:58:25.311Z,9.17
2018-08-28T02:00:54.151Z,9.30
2018-08-28T02:03:22.931Z,9.37
2018-08-28T02:05:52.804Z,9.30
2018-08-28T02:08:21.570Z,9.23
2018-08-28T02:10:50.344Z,10.10
2018-08-28T02:13:19.361Z,9.17
2018-08-28T02:15:48.198Z,10.13
2018-08-28T02:18:16.987Z,10.73
2018-08-28T02:20:46.840Z,9.73
2018-08-28T02:23:15.594Z,10.50
2018-08-28T02:25:44.389Z,10.13
2018-08-28T02:28:13.464Z,10.33
2018-08-28T02:30:42.313Z,9.20
2018-08-28T02:33:11.097Z,10.53
2018-08-28T02:35:40.200Z,10.23
2018-08-28T02:38:08.985Z,11.90
2018-08-28T02:40:37.775Z,9.57
2018-08-28T02:43:08.591Z,10.13
2018-08-28T02:45:37.357Z,10.27
2018-08-28T02:48:06.129Z,11.43
2018-08-28T02:50:36.432Z,9.30
2018-08-28T02:53:05.451Z,10.57
2018-08-28T02:55:34.238Z,16.77
2018-08-28T02:58:03.061Z,11.27
2018-08-28T03:00:31.841Z,11.60
2018-08-28T03:03:00.676Z,9.63
2018-08-28T03:05:29.442Z,9.90
2018-08-28T03:07:58.198Z,10.17
2018-08-28T03:10:27.738Z,8.70
2018-08-28T03:12:56.519Z,10.03
2018-08-28T03:15:25.349Z,9.83
2018-08-28T03:17:55.698Z,9.80
2018-08-28T03:20:24.481Z,12.60
2018-08-28T03:22:53.257Z,10.00
2018-08-28T03:25:22.825Z,10.20
2018-08-28T03:27:51.633Z,10.40
2018-08-28T03:30:20.419Z,9.40
2018-08-28T03:32:52.049Z,9.97
2018-08-28T03:35:20.859Z,9.23
2018-08-28T03:37:49.677Z,9.27
2018-08-28T03:40:18.905Z,10.73
2018-08-28T03:42:47.637Z,9.63
2018-08-28T03:45:16.421Z,10.10
2018-08-28T03:47:45.201Z,9.97
2018-08-28T03:50:14.085Z,10.90
2018-08-28T03:52:42.596Z,10.07
2018-08-28T03:55:11.594Z,9.20
2018-08-28T03:57:41.081Z,10.90
2018-08-28T04:00:09.899Z,9.80
2018-08-28T04:02:38.809Z,10.80
2018-08-28T04:05:07.643Z,10.13
2018-08-28T04:07:36.494Z,10.27
2018-08-28T04:10:08.946Z,11.33
2018-08-28T04:12:37.995Z,10.80
2018-08-28T04:15:06.882Z,10.77
2018-08-28T04:17:48.318Z,10.77
2018-08-28T04:20:17.977Z,10.70
2018-08-28T04:22:46.986Z,9.63
2018-08-28T04:25:16.590Z,10.67
2018-08-28T04:27:45.795Z,10.00
2018-08-28T04:30:14.643Z,10.10
2018-08-28T04:32:44.608Z,10.07
2018-08-28T04:35:13.417Z,9.53
2018-08-28T04:37:41.814Z,9.17
2018-08-28T04:40:11.394Z,9.13
2018-08-28T04:42:40.202Z,8.80
2018-08-28T04:45:09.015Z,10.30
2018-08-28T04:47:38.894Z,10.70
2018-08-28T04:50:07.292Z,10.87
2018-08-28T04:52:36.089Z,10.47
2018-08-28T04:55:05.025Z,10.87
2018-08-28T04:57:33.413Z,9.20
2018-08-28T05:00:02.211Z,10.03
2018-08-28T05:02:36.141Z,10.10
2018-08-28T05:05:08.128Z,9.70
2018-08-28T05:07:38.609Z,9.90
2018-08-28T05:10:07.075Z,11.87
2018-08-28T05:12:35.890Z,9.70
2018-08-28T05:15:05.036Z,9.50
2018-08-28T05:17:33.829Z,10.57
2018-08-28T05:20:02.641Z,10.77
2018-08-28T05:22:31.451Z,9.13
2018-08-28T05:25:00.291Z,10.60
2018-08-28T05:27:30.066Z,9.40
2018-08-28T05:29:58.850Z,8.70
2018-08-28T05:32:27.686Z,9.93
2018-08-28T05:34:57.271Z,9.00
2018-08-28T05:37:26.076Z,9.93
2018-08-28T05:39:54.894Z,8.90
2018-08-28T05:42:24.036Z,8.93
2018-08-28T05:44:52.833Z,8.33
2018-08-28T05:47:21.630Z,9.00
2018-08-28T05:49:53.428Z,8.17
2018-08-28T05:52:22.262Z,8.83
2018-08-28T05:54:51.108Z,9.33
2018-08-28T05:57:22.098Z,8.47
2018-08-28T05:59:50.912Z,8.20
2018-08-28T06:02:19.779Z,9.27
2018-08-28T06:04:49.455Z,8.90
2018-08-28T06:07:18.371Z,9.30
2018-08-28T06:09:47.163Z,9.40
2018-08-28T06:12:17.246Z,9.60
2018-08-28T06:14:46.170Z,9.00
2018-08-28T06:17:14.956Z,10.57
2018-08-28T06:19:43.772Z,10.20
2018-08-28T06:22:13.066Z,8.53
2018-08-28T06:24:41.881Z,8.57
2018-08-28T06:27:12.199Z,9.20
2018-08-28T06:29:41.073Z,7.80
2018-08-28T06:32:09.889Z,8.27
2018-08-28T06:34:39.234Z,8.80
2018-08-28T06:37:08.066Z,9.00
2018-08-28T06:39:36.855Z,8.30
2018-08-28T06:42:05.761Z,7.90
2018-08-28T06:44:34.531Z,8.63
2018-08-28T06:47:03.478Z,8.67
2018-08-28T06:49:33.244Z,7.73
2018-08-28T06:52:02.032Z,9.20
2018-08-28T06:54:30.860Z,9.23
2018-08-28T06:56:59.811Z,10.80
2018-08-28T06:59:28.610Z,8.27
2018-08-28T07:01:57.655Z,9.30
2018-08-28T07:04:26.819Z,8.13
2018-08-28T07:06:55.616Z,8.70
2018-08-28T07:09:24.410Z,9.20
2018-08-28T07:11:53.302Z,8.90
2018-08-28T07:14:22.134Z,9.40
2018-08-28T07:16:50.510Z,9.53
2018-08-28T07:19:20.164Z,8.70
2018-08-28T07:21:48.971Z,9.10
2018-08-28T07:24:17.750Z,8.70
2018-08-28T07:26:46.579Z,8.53
2018-08-28T07:29:15.360Z,8.97
2018-08-28T07:31:44.225Z,9.07
2018-08-28T07:34:14.272Z,8.10
2018-08-28T07:36:43.080Z,7.60
2018-08-28T07:39:11.476Z,8.23
2018-08-28T07:41:43.603Z,8.03
2018-08-28T07:44:12.431Z,7.23
2018-08-28T07:46:40.803Z,8.23
2018-08-28T07:49:13.097Z,8.10
2018-08-28T07:51:41.942Z,6.90
2018-08-28T07:54:10.766Z,8.00
2018-08-28T07:56:43.253Z,7.80
2018-08-28T07:59:12.062Z,7.87
2018-08-28T08:01:40.902Z,11.27
2018-08-28T08:04:12.304Z,10.20
2018-08-28T08:06:41.144Z,8.07
2018-08-28T08:09:11.163Z,8.27
2018-08-28T08:11:43.304Z,8.37
2018-08-28T08:14:12.119Z,7.50
2018-08-28T08:16:41.033Z,7.40
2018-08-28T08:19:12.789Z,8.20
2018-08-28T08:21:41.617Z,7.83
2018-08-28T08:24:10.410Z,8.60
2018-08-28T08:26:39.518Z,7.70
2018-08-28T08:29:08.333Z,8.40
2018-08-28T08:31:37.288Z,7.70
2018-08-28T08:34:07.457Z,7.60
2018-08-28T08:36:36.248Z,7.93
2018-08-28T08:39:05.923Z,11.47
2018-08-28T08:41:36.507Z,8.87
2018-08-28T08:44:05.603Z,7.40
2018-08-28T08:46:34.408Z,7.60
2018-08-28T08:49:06.441Z,7.63
2018-08-28T08:51:35.266Z,7.50
2018-08-28T08:54:04.061Z,8.60
2018-08-28T08:56:33.040Z,9.37
2018-08-28T08:59:01.841Z,10.33
2018-08-28T09:01:30.232Z,10.33
2018-08-28T09:04:00.200Z,8.03
2018-08-28T09:06:29.021Z,8.40
2018-08-28T09:08:57.846Z,17.83
2018-08-28T09:11:26.941Z,11.00
2018-08-28T09:13:55.777Z,10.20
2018-08-28T09:16:24.580Z,10.07
2018-08-28T09:18:55.585Z,11.73
2018-08-28T09:21:24.396Z,9.80
2018-08-28T09:23:53.232Z,10.90
2018-08-28T09:26:24.620Z,9.00
2018-08-28T09:28:53.425Z,8.33
2018-08-28T09:31:22.329Z,6.90
2018-08-28T09:33:51.908Z,7.83
2018-08-28T09:36:20.724Z,8.60
2018-08-28T09:38:49.664Z,9.07
2018-08-28T09:41:18.532Z,8.10
2018-08-28T09:43:47.419Z,7.90
2018-08-28T09:46:16.177Z,7.80
2018-08-28T09:48:46.087Z,8.23
2018-08-28T09:51:14.964Z,7.90
2018-08-28T09:53:43.769Z,8.57
2018-08-28T09:56:12.995Z,7.77
2018-08-28T09:58:41.856Z,8.10
2018-08-28T10:01:16.004Z,8.27
2018-08-28T10:03:44.383Z,8.13
2018-08-28T10:06:13.786Z,8.10
2018-08-28T10:08:42.592Z,8.00
2018-08-28T10:11:10.998Z,8.10
2018-08-28T10:13:43.453Z,7.17
2018-08-28T10:16:12.319Z,7.27
2018-08-28T10:18:41.105Z,7.77
2018-08-28T10:21:10.002Z,8.33
2018-08-28T10:23:38.785Z,8.23
2018-08-28T10:26:07.635Z,7.50
2018-08-28T10:28:37.807Z,7.40
2018-08-28T10:31:06.630Z,8.73
2018-08-28T10:33:35.434Z,7.37
2018-08-28T10:36:04.650Z,8.20
2018-08-28T10:38:33.516Z,7.93
2018-08-28T10:41:02.457Z,7.73
2018-08-28T10:43:31.878Z,7.60
2018-08-28T10:46:00.792Z,7.90
2018-08-28T10:48:29.663Z,8.23
2018-08-28T10:50:59.007Z,8.10
2018-08-28T10:53:27.894Z,7.03
2018-08-28T10:55:56.759Z,7.60
2018-08-28T10:58:26.447Z,8.03
2018-08-28T11:00:55.289Z,8.60
2018-08-28T11:03:24.119Z,8.03
2018-08-28T11:05:53.068Z,7.80
2018-08-28T11:08:22.851Z,8.77
2018-08-28T11:10:51.297Z,10.70
2018-08-28T11:13:24.075Z,8.00
2018-08-28T11:15:52.508Z,12.63
2018-08-28T11:18:21.320Z,8.50
2018-08-28T11:20:50.440Z,9.60
2018-08-28T11:23:19.273Z,9.20
2018-08-28T11:30:37.588Z,8.03
2018-08-28T11:33:06.466Z,9.53
2018-08-28T11:35:36.269Z,11.23
2018-08-28T11:38:05.347Z,9.17
2018-08-28T11:40:34.165Z,9.67
2018-08-28T11:43:03.006Z,9.67
2018-08-28T11:45:32.612Z,10.53
2018-08-28T11:48:01.430Z,10.13
2018-08-28T11:50:30.357Z,9.50
2018-08-28T11:52:59.389Z,10.60
2018-08-28T11:55:28.187Z,13.43
2018-08-28T11:57:57.741Z,10.30
2018-08-28T12:00:27.747Z,10.97
2018-08-28T12:02:56.544Z,10.43
2018-08-28T12:06:55.193Z,10.47
2018-08-28T12:09:23.944Z,10.57
2018-08-28T12:11:52.768Z,11.10
2018-08-28T12:14:22.738Z,9.93
2018-08-28T12:16:51.610Z,20.17
2018-08-28T12:19:20.478Z,10.60
2018-08-28T12:21:49.554Z,10.73
2018-08-28T12:24:18.594Z,10.20
2018-08-28T12:26:47.454Z,9.40
2018-08-28T12:29:17.427Z,10.07
2018-08-28T12:31:46.264Z,29.17
2018-08-28T12:34:15.072Z,10.20
2018-08-28T12:36:45.797Z,10.90
2018-08-28T12:39:14.649Z,9.47
2018-08-28T12:41:43.414Z,8.63
2018-08-28T12:44:12.475Z,8.53
2018-08-28T12:46:40.881Z,8.60
2018-08-28T12:49:09.774Z,8.83
2018-08-28T12:51:38.616Z,8.90
2018-08-28T12:54:07.556Z,8.60
2018-08-28T12:56:36.380Z,13.30
2018-08-28T12:59:06.451Z,16.07
2018-08-28T13:01:35.285Z,19.63
2018-08-28T13:04:04.135Z,9.47
2018-08-28T13:06:34.208Z,8.17
2018-08-28T13:09:03.080Z,7.70
2018-08-28T13:11:31.873Z,8.40
2018-08-28T13:14:02.261Z,7.57
2018-08-28T13:16:31.152Z,11.03
2018-08-28T13:18:59.935Z,8.33
2018-08-28T13:21:28.791Z,12.97
2018-08-28T13:23:57.622Z,8.83
2018-08-28T13:26:26.469Z,12.03
2018-08-28T13:28:56.316Z,11.00
2018-08-28T13:31:25.156Z,8.13
2018-08-28T13:33:53.973Z,9.40
2018-08-28T13:36:22.804Z,8.23
2018-08-28T13:38:51.630Z,8.47
2018-08-28T13:41:20.507Z,16.03
2018-08-28T13:43:49.560Z,7.73
2018-08-28T13:46:18.370Z,10.23
2018-08-28T13:48:46.842Z,10.10
2018-08-28T13:51:16.189Z,7.63
2018-08-28T13:53:45.616Z,7.50
2018-08-28T13:56:13.979Z,7.43
2018-08-28T13:58:42.861Z,8.00
2018-08-28T14:01:11.676Z,24.83
2018-08-28T14:03:40.466Z,7.50
2018-08-28T14:06:09.346Z,10.33
2018-08-28T14:08:37.753Z,7.30
2018-08-28T14:11:06.679Z,11.80
2018-08-28T14:13:35.376Z,9.50
2018-08-28T14:16:04.246Z,6.90
2018-08-28T14:18:33.053Z,7.53
2018-08-28T14:21:02.988Z,6.53
2018-08-28T14:23:31.875Z,7.23
2018-08-28T14:26:00.756Z,8.33
2018-08-28T14:28:30.023Z,6.73
2018-08-28T14:30:58.856Z,8.90
2018-08-28T14:33:27.942Z,16.90
2018-08-28T14:35:56.393Z,9.57
2018-08-28T14:38:25.169Z,8.17
2018-08-28T14:40:53.691Z,8.73
2018-08-28T14:43:23.485Z,7.40
2018-08-28T14:45:52.345Z,9.43
2018-08-28T14:48:20.783Z,6.43
2018-08-28T14:50:51.249Z,10.07
2018-08-28T14:53:20.049Z,7.47
2018-08-28T14:55:48.467Z,11.10
2018-08-28T14:58:17.540Z,10.60
2018-08-28T15:00:46.389Z,9.30
2018-08-28T15:03:15.760Z,35.23
2018-08-28T15:05:45.639Z,12.90
2018-08-28T15:08:14.087Z,8.30
2018-08-28T15:10:42.494Z,14.60
2018-08-28T15:13:11.564Z,7.83
2018-08-28T15:15:41.114Z,7.57
2018-08-28T15:18:09.957Z,7.33
2018-08-28T15:20:39.521Z,9.40
2018-08-28T15:23:08.404Z,12.60
2018-08-28T15:25:37.279Z,7.53
2018-08-28T15:28:06.349Z,7.80
2018-08-28T15:30:35.161Z,10.07
2018-08-28T15:33:03.968Z,14.17
2018-08-28T15:35:32.830Z,8.00
2018-08-28T15:38:01.566Z,15.00
2018-08-28T15:40:30.155Z,9.87
2018-08-28T15:43:01.639Z,9.47
2018-08-28T15:45:30.075Z,8.17
2018-08-28T15:47:58.470Z,8.17
2018-08-28T15:50:28.212Z,11.33
2018-08-28T15:52:57.050Z,11.60
2018-08-28T15:55:25.875Z,10.17
2018-08-28T15:57:55.219Z,11.10
2018-08-28T16:00:23.648Z,12.30
2018-08-28T16:02:52.456Z,7.70
2018-08-28T16:05:21.326Z,15.20
2018-08-28T16:07:50.852Z,13.13
2018-08-28T16:10:19.646Z,9.07
2018-08-28T16:12:49.309Z,11.10
2018-08-28T16:15:17.725Z,11.67
2018-08-28T16:17:46.150Z,9.10
2018-08-28T16:20:15.566Z,10.00
2018-08-28T16:22:47.198Z,8.33
2018-08-28T16:25:16.424Z,8.10
2018-08-28T16:27:45.231Z,7.80
2018-08-28T16:30:13.648Z,10.10
2018-08-28T16:32:44.049Z,13.37
2018-08-28T16:35:12.459Z,14.13
2018-08-28T16:37:41.296Z,13.37
2018-08-28T16:40:10.244Z,17.27
2018-08-28T16:42:39.086Z,19.57
2018-08-28T16:45:07.872Z,20.83
2018-08-28T16:47:36.685Z,19.20
2018-08-28T16:50:05.703Z,17.67
2018-08-28T16:52:34.785Z,19.10
2018-08-28T16:55:03.582Z,21.50
2018-08-28T16:57:31.989Z,20.23
2018-08-28T17:00:02.133Z,23.13
2018-08-28T17:02:30.551Z,21.57
2018-08-28T17:04:58.937Z,19.60
2018-08-28T17:07:28.758Z,20.93
2018-08-28T17:09:58.610Z,20.80
2018-08-28T17:12:27.692Z,20.70
2018-08-28T17:14:57.729Z,20.40
2018-08-28T17:17:27.205Z,19.07
2018-08-28T17:19:56.058Z,20.80
2018-08-28T17:22:25.394Z,21.67
2018-08-28T17:24:53.793Z,20.97
2018-08-28T17:27:22.592Z,21.07
2018-08-28T17:29:51.452Z,22.27
2018-08-28T17:32:20.256Z,21.53
2018-08-28T17:34:49.055Z,22.00
2018-08-28T17:37:19.133Z,21.30
2018-08-28T17:39:48.121Z,22.23
2018-08-28T17:42:16.962Z,21.23
2018-08-28T17:44:47.883Z,21.63
2018-08-28T17:47:17.610Z,19.90
2018-08-28T17:49:46.435Z,23.03
2018-08-28T17:52:18.707Z,19.70
2018-08-28T17:54:47.538Z,22.57
2018-08-28T17:57:16.383Z,21.57
2018-08-28T17:59:45.499Z,22.03
2018-08-28T18:02:14.286Z,22.23
2018-08-28T18:04:43.127Z,22.03
2018-08-28T18:07:12.184Z,23.53
2018-08-28T18:09:40.662Z,23.23
2018-08-28T18:12:09.522Z,22.47
2018-08-28T18:14:38.395Z,23.20
2018-08-28T18:17:06.791Z,24.90
2018-08-28T18:19:35.632Z,24.50
2018-08-28T18:22:04.477Z,24.73
2018-08-28T18:24:33.314Z,26.60
2018-08-28T18:27:02.140Z,24.90
2018-08-28T18:29:31.213Z,23.43
2018-08-28T18:32:00.022Z,24.60
2018-08-28T18:34:28.849Z,24.30
2018-08-28T18:36:59.882Z,25.63
2018-08-28T18:39:28.770Z,25.20
2018-08-28T18:41:57.207Z,22.27
2018-08-28T18:44:26.301Z,25.50
2018-08-28T18:46:55.226Z,23.67
2018-08-28T18:49:24.032Z,24.73
2018-08-28T18:51:52.734Z,24.00
2018-08-28T18:54:21.572Z,25.33
2018-08-28T18:56:50.379Z,23.67
2018-08-28T18:59:19.253Z,23.83
2018-08-28T19:01:47.631Z,24.87
2018-08-28T19:04:16.432Z,23.37
2018-08-28T19:06:45.980Z,24.20
2018-08-28T19:09:14.470Z,23.83
2018-08-28T19:11:43.205Z,25.27
2018-08-28T19:14:12.091Z,25.40
2018-08-28T19:16:40.938Z,24.47
2018-08-28T19:19:10.979Z,24.67
2018-08-28T19:24:32.776Z,30.30
2018-08-28T19:27:01.614Z,26.03
2018-08-28T19:29:30.441Z,25.27
2018-08-28T19:31:59.666Z,28.60
2018-08-28T19:34:28.094Z,25.03
2018-08-28T19:36:56.903Z,25.70
2018-08-28T19:39:26.835Z,28.03
2018-08-28T19:41:55.675Z,26.83
2018-08-28T19:44:24.168Z,26.17
2018-08-28T19:46:54.283Z,31.00
2018-08-28T19:49:22.708Z,26.80
2018-08-28T19:51:51.744Z,25.57
2018-08-28T19:54:25.573Z,25.97
2018-08-28T19:56:54.443Z,27.80
2018-08-28T19:59:24.019Z,25.27
2018-08-28T20:01:53.987Z,26.57
2018-08-28T20:04:22.842Z,25.93
2018-08-28T20:06:51.670Z,27.33
2018-08-28T20:09:20.532Z,27.10
2018-08-28T20:11:49.379Z,27.37
2018-08-28T20:14:18.249Z,25.67
2018-08-28T20:16:48.481Z,25.97
2018-08-28T20:19:17.300Z,27.10
2018-08-28T20:21:46.114Z,26.33
2018-08-28T20:24:15.526Z,27.23
2018-08-28T20:26:44.365Z,26.70
2018-08-28T20:29:12.735Z,28.37
2018-08-28T20:31:41.569Z,27.37
2018-08-28T20:34:10.355Z,28.70
2018-08-28T20:36:39.165Z,26.07
2018-08-28T20:39:08.037Z,28.70
2018-08-28T20:41:37.729Z,26.87
2018-08-28T20:44:06.806Z,27.60
2018-08-28T20:46:35.639Z,27.83
2018-08-28T20:49:04.481Z,27.40
2018-08-28T20:51:33.280Z,31.63
2018-08-28T20:54:01.957Z,33.20
2018-08-28T20:56:30.764Z,28.83
2018-08-28T20:58:59.576Z,30.23
2018-08-28T21:01:28.953Z,29.33
2018-08-28T21:03:57.767Z,30.80
2018-08-28T21:06:26.631Z,30.50
2018-08-28T21:08:55.764Z,29.13
2018-08-28T21:11:24.586Z,28.17
2018-08-28T21:13:53.407Z,28.97
2018-08-28T21:16:23.006Z,29.10
2018-08-28T21:18:51.790Z,28.93
2018-08-28T21:21:20.606Z,32.50
2018-08-28T21:23:49.447Z,29.67
2018-08-28T21:26:18.237Z,31.70
2018-08-28T21:28:47.170Z,29.77
2018-08-28T21:31:16.830Z,32.27
2018-08-28T21:33:45.617Z,30.90
2018-08-28T21:36:14.429Z,29.33
2018-08-28T21:38:43.257Z,29.40
2018-08-28T21:41:12.065Z,30.33
2018-08-28T21:43:40.865Z,30.23
2018-08-28T21:46:10.912Z,33.30
2018-08-28T21:48:39.826Z,30.37
2018-08-28T21:51:08.216Z,29.43
2018-08-28T21:53:38.101Z,29.43
2018-08-28T21:56:07.015Z,31.57
2018-08-28T21:58:35.921Z,31.30
2018-08-28T22:01:12.800Z,30.70
2018-08-28T22:03:42.710Z,29.07
2018-08-28T22:06:17.874Z,28.97
2018-08-28T22:08:46.776Z,30.53
2018-08-28T22:11:15.678Z,30.77
2018-08-28T22:13:45.396Z,30.80
2018-08-28T22:16:14.210Z,28.50
2018-08-28T22:18:43.328Z,30.53
2018-08-28T22:21:12.455Z,30.50
2018-08-28T22:23:40.921Z,31.07
2018-08-28T22:26:09.806Z,31.33
2018-08-28T22:28:38.965Z,27.23
2018-08-28T22:31:07.809Z,31.37
2018-08-28T22:33:36.212Z,28.90
2018-08-28T22:36:06.385Z,29.20
2018-08-28T22:38:35.265Z,30.57
2018-08-28T22:41:04.113Z,29.70
2018-08-28T22:43:32.961Z,30.27
2018-08-28T22:46:01.763Z,29.60
2018-08-28T22:48:31.574Z,30.77
2018-08-28T22:51:00.369Z,29.60
2018-08-28T22:53:29.149Z,28.23
2018-08-28T22:55:57.973Z,27.77
2018-08-28T22:58:26.758Z,27.97
2018-08-28T23:00:55.603Z,26.20
2018-08-28T23:03:24.570Z,25.50
2018-08-28T23:05:53.383Z,25.97
2018-08-28T23:08:22.162Z,25.37
2018-08-28T23:10:51.632Z,25.17
2018-08-28T23:13:20.016Z,26.23
2018-08-28T23:15:48.807Z,25.57
2018-08-28T23:18:17.637Z,23.67
2018-08-28T23:20:46.451Z,25.30
2018-08-28T23:23:15.280Z,24.00
2018-08-28T23:25:45.094Z,24.40
2018-08-28T23:28:13.894Z,25.53
2018-08-28T23:30:42.270Z,23.70
2018-08-28T23:33:11.088Z,22.47
2018-08-28T23:35:39.904Z,23.90
2018-08-28T23:38:08.871Z,23.13
2018-08-28T23:40:38.969Z,23.10
2018-08-28T23:43:08.239Z,24.83
2018-08-28T23:45:37.212Z,23.27
2018-08-28T23:48:06.364Z,22.33
2018-08-28T23:50:35.150Z,23.63
2018-08-28T23:53:03.966Z,21.73
2018-08-28T23:55:35.352Z,22.50
2018-08-28T23:58:04.291Z,22.20
